Time;durP1;ratioP1;P1;durP2;ratioP2;P2;SDS_P1;SDS_P2;PMS_P1;PMS_P2;Temp;Humidity;BMP_temperature;BMP_pressure;BME280_temperature;BME280_humidity;BME280_pressure;Samples;Min_cycle;Max_cycle;Signal;HPM_P1;HPM_P2
2023/06/09 00:02:04;;;;;;;;;;;;;;;;;;6179787;23;20079;-78
2023/06/09 00:04:38;;;;;;;11.20;3.03;;;;;;;;;;6177737;23;19916;-79
2023/06/09 00:07:05;;;;;;;6.78;3.72;;;;;;;;;;6178373;23;20083;-79
2023/06/09 00:09:39;;;;;;;6.65;3.65;;;;;;;;;;6178571;23;20025;-79
2023/06/09 00:12:06;;;;;;;6.05;3.08;;;;;;;;;;6177762;23;20700;-78
2023/06/09 00:14:33;;;;;;;5.75;3.42;;;;;;;;;;6180863;23;20029;-78
2023/06/09 00:17:11;;;;;;;5.57;2.80;;;;;;;;;;6180815;23;20025;-79
2023/06/09 00:19:41;;;;;;;7.55;3.65;;;;;;;;;;6179628;23;20025;-78
2023/06/09 00:22:15;;;;;;;8.32;3.25;;;;;;;;;;6178068;23;20087;-78
2023/06/09 00:24:42;;;;;;;;;;;;;;;;;;6177636;23;20025;-78
2023/06/09 00:27:10;;;;;;;7.25;3.10;;;;;;;;;;6179889;23;20322;-78
2023/06/09 00:29:44;;;;;;;12.65;3.30;;;;;;;;;;6179040;23;20033;-78
2023/06/09 00:32:11;;;;;;;5.65;3.17;;;;;;;;;;6180125;23;20086;-79
2023/06/09 00:34:45;;;;;;;12.40;3.38;;;;;;;;;;6181185;23;20024;-79
2023/06/09 00:37:12;;;;;;;6.00;2.78;;;;;;;;;;6179309;23;20028;-78
2023/06/09 00:39:39;;;;;;;4.20;2.70;;;;;;;;;;6155510;23;20087;-78
2023/06/09 00:42:13;;;;;;;3.97;2.70;;;;;;;;;;6180142;23;20020;-77
2023/06/09 00:44:46;;;;;;;5.05;2.80;;;;;;;;;;6178502;23;20021;-78
2023/06/09 00:47:21;;;;;;;8.02;3.42;;;;;;;;;;6179782;23;20099;-78
2023/06/09 00:49:49;;;;;;;3.65;2.60;;;;;;;;;;6153419;23;20021;-78
2023/06/09 00:52:17;;;;;;;4.28;2.72;;;;;;;;;;6152835;23;20580;-77
2023/06/09 00:54:52;;;;;;;4.13;2.58;;;;;;;;;;6180247;23;20025;-78
2023/06/09 00:57:19;;;;;;;7.00;2.70;;;;;;;;;;6178542;23;20025;-79
2023/06/09 00:59:53;;;;;;;3.55;2.50;;;;;;;;;;6179056;23;20025;-78
2023/06/09 01:02:21;;;;;;;8.85;2.83;;;;;;;;;;6179309;23;20331;-78
2023/06/09 01:04:49;;;;;;;8.20;2.80;;;;;;;;;;6178332;23;20466;-78
2023/06/09 01:07:40;;;;;;;3.30;2.33;;;;;;;;;;6176312;23;20021;-78
2023/06/09 01:10:26;;;;;;;4.35;2.85;;;;;;;;;;6179253;23;20538;-78
2023/06/09 01:13:07;;;;;;;6.70;2.75;;;;;;;;;;6175791;23;20080;-78
2023/06/09 01:15:36;;;;;;;6.60;2.85;;;;;;;;;;6178817;23;20048;-78
2023/06/09 01:18:13;;;;;;;7.32;3.00;;;;;;;;;;6149982;23;20021;-78
2023/06/09 01:21:06;;;;;;;4.35;2.60;;;;;;;;;;6177735;23;20025;-78
2023/06/09 01:23:51;;;;;;;8.45;2.75;;;;;;;;;;6179504;23;20551;-77
2023/06/09 01:26:18;;;;;;;;;;;;;;;;;;6180274;23;20458;-79
2023/06/09 01:28:55;;;;;;;6.93;2.22;;;;;;;;;;6179142;23;19978;-78
2023/06/09 01:31:29;;;;;;;5.13;3.10;;;;;;;;;;6153868;23;20021;-78
2023/06/09 01:33:56;;;;;;;;;;;;;;;;;;6177847;23;20044;-78
2023/06/09 01:36:23;;;;;;;4.53;2.42;;;;;;;;;;6178666;23;19939;-77
2023/06/09 01:38:58;;;;;;;3.50;2.25;;;;;;;;;;6177756;23;20051;-78
2023/06/09 01:41:25;;;;;;;5.30;2.50;;;;;;;;;;6179318;23;20071;-77
2023/06/09 01:44:06;;;;;;;4.70;2.78;;;;;;;;;;6177868;23;20463;-77
2023/06/09 01:46:42;;;;;;;4.50;2.53;;;;;;;;;;6152566;23;20021;-78
2023/06/09 01:49:27;;;;;;;3.95;2.60;;;;;;;;;;6177765;23;20044;-77
2023/06/09 01:51:55;;;;;;;3.83;2.45;;;;;;;;;;6152468;23;20025;-77
2023/06/09 01:54:31;;;;;;;5.78;2.90;;;;;;;;;;6179214;23;20021;-78
2023/06/09 01:57:05;;;;;;;4.07;2.10;;;;;;;;;;6178379;23;20020;-78
2023/06/09 01:59:45;;;;;;;3.50;2.03;;;;;;;;;;6178411;23;20021;-77
2023/06/09 02:02:20;;;;;;;4.38;2.63;;;;;;;;;;6175652;23;20029;-78
2023/06/09 02:04:56;;;;;;;2.90;1.90;;;;;;;;;;6179608;23;20021;-77
2023/06/09 02:07:23;;;;;;;5.45;2.45;;;;;;;;;;6152029;23;20824;-76
2023/06/09 02:09:50;;;;;;;4.75;2.20;;;;;;;;;;6154307;23;20084;-78
2023/06/09 02:12:31;;;;;;;7.07;2.00;;;;;;;;;;6184648;23;20067;-76
2023/06/09 02:14:59;;;;;;;3.83;2.22;;;;;;;;;;6179373;23;20029;-76
2023/06/09 02:17:34;;;;;;;5.30;2.15;;;;;;;;;;6179129;23;20040;-77
2023/06/09 02:20:01;;;;;;;2.88;2.17;;;;;;;;;;6178354;23;20029;-79
2023/06/09 02:22:28;;;;;;;3.78;2.10;;;;;;;;;;6179655;23;20076;-77
2023/06/09 02:25:03;;;;;;;3.33;2.00;;;;;;;;;;6178487;23;20135;-78
2023/06/09 02:27:31;;;;;;;2.47;1.60;;;;;;;;;;6152383;23;20028;-77
2023/06/09 02:29:58;;;;;;;3.35;2.05;;;;;;;;;;6178909;23;20076;-77
2023/06/09 02:32:32;;;;;;;2.90;2.20;;;;;;;;;;6178163;23;20025;-77
2023/06/09 02:34:59;;;;;;;5.47;2.13;;;;;;;;;;6178292;23;20033;-78
2023/06/09 02:37:35;;;;;;;3.75;2.22;;;;;;;;;;6154627;23;20362;-78
2023/06/09 02:40:04;;;;;;;3.20;1.75;;;;;;;;;;6151557;23;20029;-77
2023/06/09 02:42:31;;;;;;;4.90;1.98;;;;;;;;;;6152649;23;20029;-78
2023/06/09 02:45:12;;;;;;;2.53;1.60;;;;;;;;;;6162101;23;20021;-77
2023/06/09 02:47:40;;;;;;;5.22;2.40;;;;;;;;;;6175852;23;20083;-78
2023/06/09 02:50:15;;;;;;;2.78;1.88;;;;;;;;;;6178873;23;20048;-78
2023/06/09 02:52:49;;;;;;;3.22;1.73;;;;;;;;;;6175529;23;20474;-78
2023/06/09 02:55:18;;;;;;;4.68;2.13;;;;;;;;;;6176528;23;20366;-77
2023/06/09 02:57:45;;;;;;;3.33;1.70;;;;;;;;;;6177501;23;20033;-77
2023/06/09 03:00:20;;;;;;;3.88;1.98;;;;;;;;;;6177567;23;20021;-78
2023/06/09 03:02:51;;;;;;;4.63;1.98;;;;;;;;;;6177998;23;20057;-77
2023/06/09 03:05:20;;;;;;;2.17;1.70;;;;;;;;;;6177154;23;20021;-78
2023/06/09 03:07:54;;;;;;;3.47;1.80;;;;;;;;;;6178327;23;20021;-77
2023/06/09 03:10:21;;;;;;;2.75;1.70;;;;;;;;;;6175203;23;20021;-78
2023/06/09 03:12:48;;;;;;;3.58;1.95;;;;;;;;;;6176218;23;20029;-77
2023/06/09 03:15:24;;;;;;;3.72;1.65;;;;;;;;;;6176027;23;20071;-77
2023/06/09 03:17:51;;;;;;;1.95;1.50;;;;;;;;;;6177532;23;20426;-77
2023/06/09 03:20:25;;;;;;;2.35;1.60;;;;;;;;;;6175765;23;20179;-77
2023/06/09 03:22:54;;;;;;;2.65;1.60;;;;;;;;;;6178465;23;20029;-77
2023/06/09 03:25:21;;;;;;;1.92;1.58;;;;;;;;;;6176517;23;20025;-77
2023/06/09 03:27:55;;;;;;;5.40;2.20;;;;;;;;;;6177801;23;20538;-77
2023/06/09 03:30:22;;;;;;;2.65;1.83;;;;;;;;;;6174687;23;20025;-77
2023/06/09 03:32:50;;;;;;;2.30;1.83;;;;;;;;;;6177385;23;20036;-78
2023/06/09 03:35:24;;;;;;;2.78;1.77;;;;;;;;;;6178716;23;20088;-77
2023/06/09 03:37:51;;;;;;;4.90;1.90;;;;;;;;;;6176818;23;20071;-77
2023/06/09 03:40:25;;;;;;;2.33;1.52;;;;;;;;;;6178312;23;20044;-77
2023/06/09 03:42:52;;;;;;;2.97;1.90;;;;;;;;;;6177073;23;20406;-77
2023/06/09 03:45:19;;;;;;;2.58;1.83;;;;;;;;;;6177694;23;20079;-76
2023/06/09 03:47:53;;;;;;;3.58;1.88;;;;;;;;;;6180075;23;20462;-77
2023/06/09 03:50:20;;;;;;;2.45;1.50;;;;;;;;;;6178017;23;20032;-77
2023/06/09 03:52:55;;;;;;;3.72;1.85;;;;;;;;;;6180688;23;20021;-77
2023/06/09 03:55:24;;;;;;;5.05;1.80;;;;;;;;;;6179909;23;20065;-77
2023/06/09 03:57:51;;;;;;;4.75;1.63;;;;;;;;;;6179399;23;20029;-78
2023/06/09 04:00:25;;;;;;;4.75;2.00;;;;;;;;;;6178616;23;20029;-78
2023/06/09 04:02:52;;;;;;;6.03;2.00;;;;;;;;;;6128134;23;20485;-78
2023/06/09 04:05:26;;;;;;;3.83;1.85;;;;;;;;;;6177256;23;20029;-78
2023/06/09 04:07:53;;;;;;;3.90;1.75;;;;;;;;;;6177649;23;20037;-78
2023/06/09 04:10:21;;;;;;;4.13;1.77;;;;;;;;;;6180264;23;20025;-78
2023/06/09 04:12:55;;;;;;;3.88;1.95;;;;;;;;;;6152390;23;20029;-77
2023/06/09 04:15:22;;;;;;;1.73;1.50;;;;;;;;;;6176142;23;20466;-79
2023/06/09 04:17:57;;;;;;;2.42;1.70;;;;;;;;;;6177062;23;20079;-78
2023/06/09 04:20:25;;;;;;;2.83;1.55;;;;;;;;;;6147759;23;20025;-78
2023/06/09 04:22:52;;;;;;;1.92;1.30;;;;;;;;;;6176431;23;20087;-77
2023/06/09 04:25:26;;;;;;;4.38;2.00;;;;;;;;;;6179948;23;20075;-78
2023/06/09 04:27:54;;;;;;;2.35;1.50;;;;;;;;;;6179217;23;20083;-78
2023/06/09 04:30:25;;;;;;;2.50;1.52;;;;;;;;;;6178725;23;20076;-79
2023/06/09 04:32:59;;;;;;;2.65;1.60;;;;;;;;;;6155279;23;20025;-78
2023/06/09 04:35:27;;;;;;;3.03;1.58;;;;;;;;;;6178659;23;20120;-79
2023/06/09 04:37:54;;;;;;;1.48;1.25;;;;;;;;;;6179640;23;20021;-78
2023/06/09 04:40:31;;;;;;;2.63;1.60;;;;;;;;;;6179356;23;20028;-79
2023/06/09 04:43:07;;;;;;;2.13;1.58;;;;;;;;;;6180026;23;20458;-77
2023/06/09 04:45:55;;;;;;;2.67;1.83;;;;;;;;;;6177191;23;20087;-78
2023/06/09 04:48:22;;;;;;;4.97;1.90;;;;;;;;;;6178580;23;20539;-78
2023/06/09 04:51:01;;;;;;;3.00;1.67;;;;;;;;;;6160442;23;20025;-78
2023/06/09 04:53:29;;;;;;;2.30;1.80;;;;;;;;;;6174914;23;20040;-79
2023/06/09 04:56:03;;;;;;;3.13;1.40;;;;;;;;;;6180301;23;20033;-78
2023/06/09 04:58:31;;;;;;;3.50;1.38;;;;;;;;;;6179429;23;20025;-77
2023/06/09 05:01:04;;;;;;;4.70;1.65;;;;;;;;;;6153641;23;20032;-78
2023/06/09 05:03:40;;;;;;;3.45;1.80;;;;;;;;;;6179843;23;20032;-78
2023/06/09 05:06:08;;;;;;;5.43;1.42;;;;;;;;;;6179860;23;20044;-78
2023/06/09 05:08:42;;;;;;;3.88;2.00;;;;;;;;;;6179951;23;20029;-79
2023/06/09 05:11:09;;;;;;;1.80;1.48;;;;;;;;;;6180287;23;20025;-78
2023/06/09 05:13:36;;;;;;;3.72;1.90;;;;;;;;;;6179656;23;20470;-78
2023/06/09 05:16:11;;;;;;;2.58;1.80;;;;;;;;;;6176255;23;20025;-78
2023/06/09 05:18:38;;;;;;;2.63;1.50;;;;;;;;;;6180140;23;20029;-79
2023/06/09 05:21:12;;;;;;;4.45;1.83;;;;;;;;;;6180252;23;20454;-78
2023/06/09 05:23:39;;;;;;;4.07;1.50;;;;;;;;;;6181610;23;20021;-76
2023/06/09 05:26:07;;;;;;;2.75;1.20;;;;;;;;;;6177624;23;20040;-79
2023/06/09 05:28:41;;;;;;;6.22;1.63;;;;;;;;;;6178391;23;20294;-78
2023/06/09 05:31:16;;;;;;;1.77;1.13;;;;;;;;;;6178609;23;20347;-78
2023/06/09 05:33:44;;;;;;;2.60;1.60;;;;;;;;;;6179691;23;20669;-78
2023/06/09 05:36:12;;;;;;;1.30;1.20;;;;;;;;;;6180191;23;20032;-77
2023/06/09 05:38:46;;;;;;;6.45;2.05;;;;;;;;;;6179260;23;20068;-79
2023/06/09 05:41:14;;;;;;;4.70;1.50;;;;;;;;;;6180671;23;20017;-78
2023/06/09 05:44:01;;;;;;;2.38;1.55;;;;;;;;;;6179262;23;20079;-79
2023/06/09 05:46:39;;;;;;;8.77;1.30;;;;;;;;;;6155137;23;20020;-79
2023/06/09 05:49:13;;;;;;;1.98;1.50;;;;;;;;;;6180118;23;20332;-78
2023/06/09 05:51:47;;;;;;;1.50;1.13;;;;;;;;;;6179928;23;20389;-79
2023/06/09 05:54:21;;;;;;;3.35;1.35;;;;;;;;;;6155081;23;20110;-79
2023/06/09 05:56:48;;;;;;;2.40;1.50;;;;;;;;;;6179855;23;20025;-79
2023/06/09 05:59:20;;;;;;;2.78;1.35;;;;;;;;;;6178143;23;20477;-78
2023/06/09 06:01:54;;;;;;;3.22;1.70;;;;;;;;;;6155123;23;20362;-79
2023/06/09 06:04:21;;;;;;;2.92;1.20;;;;;;;;;;6179536;23;20029;-78
2023/06/09 06:06:48;;;;;;;5.22;1.58;;;;;;;;;;6179411;23;20084;-78
2023/06/09 06:09:23;;;;;;;2.13;1.38;;;;;;;;;;6179022;23;20020;-79
2023/06/09 06:11:50;;;;;;;2.10;1.45;;;;;;;;;;6179835;23;20025;-78
2023/06/09 06:14:24;;;;;;;3.50;1.60;;;;;;;;;;6178796;23;20123;-78
2023/06/09 06:16:51;;;;;;;1.98;1.33;;;;;;;;;;6178702;23;20025;-80
2023/06/09 06:19:18;;;;;;;3.25;1.70;;;;;;;;;;6153219;23;20025;-79
2023/06/09 06:21:52;;;;;;;3.78;1.55;;;;;;;;;;6179086;23;20025;-78
2023/06/09 06:24:19;;;;;;;2.20;1.40;;;;;;;;;;6179114;23;20028;-78
2023/06/09 06:26:53;;;;;;;1.52;1.30;;;;;;;;;;6179333;23;20058;-78
2023/06/09 06:29:20;;;;;;;1.42;0.90;;;;;;;;;;6179927;23;20072;-79
2023/06/09 06:31:48;;;;;;;1.52;1.10;;;;;;;;;;6178667;23;20028;-78
2023/06/09 06:34:22;;;;;;;2.00;1.38;;;;;;;;;;6176186;23;20024;-79
2023/06/09 06:36:49;;;;;;;4.97;1.90;;;;;;;;;;6178938;23;20087;-79
2023/06/09 06:39:16;;;;;;;3.80;1.55;;;;;;;;;;6179921;23;20033;-79
2023/06/09 06:41:53;;;;;;;2.30;1.50;;;;;;;;;;6178747;23;20458;-81
2023/06/09 06:44:26;;;;;;;1.38;1.27;;;;;;;;;;6179004;23;20032;-79
2023/06/09 06:47:07;;;;;;;3.55;1.20;;;;;;;;;;6178751;23;20568;-79
2023/06/09 06:49:34;;;;;;;7.03;1.42;;;;;;;;;;6179858;23;20342;-80
2023/06/09 06:52:08;;;;;;;4.65;1.25;;;;;;;;;;6178924;23;20032;-78
2023/06/09 06:54:35;;;;;;;4.00;1.38;;;;;;;;;;6179734;23;20052;-79
2023/06/09 06:57:02;;;;;;;1.77;1.05;;;;;;;;;;6178790;23;20029;-78
2023/06/09 06:59:36;;;;;;;3.78;1.58;;;;;;;;;;6178302;23;20025;-79
2023/06/09 07:02:03;;;;;;;2.97;1.25;;;;;;;;;;6179339;23;20048;-79
2023/06/09 07:04:37;;;;;;;3.40;1.40;;;;;;;;;;6180054;23;20634;-79
2023/06/09 07:07:04;;;;;;;3.50;1.35;;;;;;;;;;6179237;23;20103;-78
2023/06/09 07:09:32;;;;;;;3.45;1.50;;;;;;;;;;6179717;23;20079;-79
2023/06/09 07:12:06;;;;;;;1.55;1.23;;;;;;;;;;6178607;23;20080;-78
2023/06/09 07:14:35;;;;;;;2.65;1.20;;;;;;;;;;6178299;23;20104;-79
2023/06/09 07:17:09;;;;;;;3.20;1.38;;;;;;;;;;6175829;23;20017;-80
2023/06/09 07:19:36;;;;;;;4.57;1.55;;;;;;;;;;6178977;23;20029;-80
2023/06/09 07:22:04;;;;;;;3.42;1.40;;;;;;;;;;6176825;23;20017;-79
2023/06/09 07:24:38;;;;;;;2.50;1.45;;;;;;;;;;6178898;23;20025;-80
2023/06/09 07:27:05;;;;;;;1.70;1.20;;;;;;;;;;6178627;23;20032;-80
2023/06/09 07:29:41;;;;;;;2.15;1.50;;;;;;;;;;6178722;23;20088;-81
2023/06/09 07:32:09;;;;;;;1.23;1.10;;;;;;;;;;6175922;23;20382;-79
2023/06/09 07:34:37;;;;;;;2.15;1.42;;;;;;;;;;6149604;23;20063;-79
2023/06/09 07:37:12;;;;;;;4.10;1.17;;;;;;;;;;6178968;23;20017;-80
2023/06/09 07:39:39;;;;;;;2.83;1.10;;;;;;;;;;6175629;23;20471;-79
2023/06/09 07:42:14;;;;;;;3.13;1.35;;;;;;;;;;6178739;23;20071;-80
2023/06/09 07:44:54;;;;;;;1.75;1.23;;;;;;;;;;6153555;23;20536;-80
2023/06/09 07:47:28;;;;;;;2.25;1.17;;;;;;;;;;6178797;23;20029;-79
2023/06/09 07:49:55;;;;;;;5.45;1.30;;;;;;;;;;6179678;23;20052;-81
2023/06/09 07:52:23;;;;;;;2.88;1.30;;;;;;;;;;6178074;23;20536;-80
2023/06/09 07:54:57;;;;;;;4.13;1.10;;;;;;;;;;6178283;23;20025;-80
2023/06/09 07:57:24;;;;;;;4.75;1.50;;;;;;;;;;6178978;23;20032;-81
2023/06/09 07:59:58;;;;;;;5.97;1.27;;;;;;;;;;6177512;23;20025;-80
2023/06/09 08:02:26;;;;;;;2.03;1.52;;;;;;;;;;6176332;23;20028;-79
2023/06/09 08:04:53;;;;;;;2.78;1.10;;;;;;;;;;6179976;23;20025;-80
2023/06/09 08:07:28;;;;;;;2.20;1.58;;;;;;;;;;6177106;23;20402;-79
2023/06/09 08:09:56;;;;;;;4.40;1.30;;;;;;;;;;6179677;23;20024;-80
2023/06/09 08:12:30;;;;;;;3.53;1.23;;;;;;;;;;6179093;23;20025;-81
2023/06/09 08:14:57;;;;;;;4.78;1.60;;;;;;;;;;6177205;23;20032;-80
2023/06/09 08:17:25;;;;;;;1.95;1.58;;;;;;;;;;6176827;23;20036;-80
2023/06/09 08:19:59;;;;;;;2.75;1.08;;;;;;;;;;6177366;23;20080;-80
2023/06/09 08:22:26;;;;;;;4.03;1.50;;;;;;;;;;6176029;23;20025;-80
2023/06/09 08:24:55;;;;;;;2.83;1.45;;;;;;;;;;6178924;23;20025;-79
2023/06/09 08:27:29;;;;;;;3.60;1.20;;;;;;;;;;6178732;23;20032;-80
2023/06/09 08:29:56;;;;;;;6.22;1.48;;;;;;;;;;6178212;23;20021;-81
2023/06/09 08:32:34;;;;;;;3.15;1.30;;;;;;;;;;6178581;23;20021;-80
2023/06/09 08:35:06;;;;;;;2.72;1.50;;;;;;;;;;6179671;23;20348;-80
2023/06/09 08:37:41;;;;;;;5.63;1.30;;;;;;;;;;6179768;23;20084;-79
2023/06/09 08:40:09;;;;;;;3.40;1.05;;;;;;;;;;6179577;23;20108;-81
2023/06/09 08:42:38;;;;;;;3.30;1.60;;;;;;;;;;6179811;23;20099;-81
2023/06/09 08:45:19;;;;;;;2.13;1.35;;;;;;;;;;6179440;23;20025;-80
2023/06/09 08:47:50;;;;;;;2.95;1.10;;;;;;;;;;6180535;23;20032;-81
2023/06/09 08:50:25;;;;;;;6.20;1.33;;;;;;;;;;6180769;23;20025;-80
2023/06/09 08:52:55;;;;;;;3.83;1.60;;;;;;;;;;6182188;23;20028;-81
2023/06/09 08:55:22;;;;;;;7.55;1.58;;;;;;;;;;6154264;23;20450;-80
2023/06/09 08:57:56;;;;;;;5.50;1.58;;;;;;;;;;6181386;23;20583;-81
2023/06/09 09:00:23;;;;;;;6.05;1.27;;;;;;;;;;6180194;23;20029;-78
2023/06/09 09:02:51;;;;;;;6.70;1.50;;;;;;;;;;6179458;23;20021;-81
2023/06/09 09:05:25;;;;;;;3.53;1.20;;;;;;;;;;6179142;23;20099;-79
2023/06/09 09:07:52;;;;;;;;;;;;;;;;;;6180324;23;20402;-81
2023/06/09 09:10:28;;;;;;;3.53;1.33;;;;;;;;;;6180166;23;20334;-80
2023/06/09 09:12:55;;;;;;;3.97;1.23;;;;;;;;;;6180561;23;20332;-81
2023/06/09 09:15:25;;;;;;;4.15;1.40;;;;;;;;;;6179570;23;20028;-81
2023/06/09 09:17:59;;;;;;;3.50;1.23;;;;;;;;;;6179597;23;20025;-80
2023/06/09 09:20:36;;;;;;;8.55;1.55;;;;;;;;;;6153587;23;20025;-81
2023/06/09 09:23:10;;;;;;;2.00;1.50;;;;;;;;;;6180508;23;20056;-82
2023/06/09 09:25:37;;;;;;;4.57;1.65;;;;;;;;;;6179710;23;20087;-81
2023/06/09 09:28:08;;;;;;;4.40;1.73;;;;;;;;;;6180308;23;20054;-81
2023/06/09 09:31:00;;;;;;;1.95;1.20;;;;;;;;;;6177013;23;20036;-82
2023/06/09 09:33:28;;;;;;;2.85;1.33;;;;;;;;;;6176083;23;20338;-80
2023/06/09 09:36:02;;;;;;;3.20;1.30;;;;;;;;;;6179263;23;20103;-82
2023/06/09 09:38:33;;;;;;;3.20;1.48;;;;;;;;;;6153492;23;20466;-81
2023/06/09 09:41:13;;;;;;;2.80;1.20;;;;;;;;;;6179418;23;20079;-81
2023/06/09 09:43:40;;;;;;;3.15;1.42;;;;;;;;;;6179995;23;20099;-82
2023/06/09 09:46:26;;;;;;;2.80;1.67;;;;;;;;;;6179336;23;20025;-82
2023/06/09 09:48:54;;;;;;;2.05;1.60;;;;;;;;;;6179241;23;20028;-80
2023/06/09 09:51:28;;;;;;;4.68;1.27;;;;;;;;;;6179959;23;20069;-81
2023/06/09 09:53:58;;;;;;;1.40;1.02;;;;;;;;;;6180019;23;20025;-81
2023/06/09 09:56:32;;;;;;;2.25;1.48;;;;;;;;;;6180503;23;20021;-81
2023/06/09 09:58:59;;;;;;;3.50;1.27;;;;;;;;;;6177024;23;20025;-81
2023/06/09 10:01:33;;;;;;;3.33;1.38;;;;;;;;;;6178661;23;20029;-81
2023/06/09 10:04:01;;;;;;;2.30;1.50;;;;;;;;;;6153674;23;20025;-80
2023/06/09 10:06:37;;;;;;;2.85;1.35;;;;;;;;;;6178985;23;20502;-80
2023/06/09 10:09:05;;;;;;;1.95;1.50;;;;;;;;;;6153057;23;20409;-80
2023/06/09 10:11:39;;;;;;;1.40;1.30;;;;;;;;;;6178109;23;20128;-82
2023/06/09 10:14:06;;;;;;;4.65;1.45;;;;;;;;;;6179635;23;20025;-81
2023/06/09 10:16:41;;;;;;;3.67;1.42;;;;;;;;;;6153966;23;20611;-80
2023/06/09 10:19:08;;;;;;;2.50;1.60;;;;;;;;;;6179706;23;20021;-81
2023/06/09 10:21:42;;;;;;;3.55;1.60;;;;;;;;;;6179266;23;20103;-83
2023/06/09 10:24:12;;;;;;;10.45;1.70;;;;;;;;;;6178686;23;20083;-82
2023/06/09 10:26:40;;;;;;;3.33;1.60;;;;;;;;;;6177733;23;20538;-83
2023/06/09 10:29:15;;;;;;;3.33;1.60;;;;;;;;;;6179427;23;20024;-82
2023/06/09 10:31:44;;;;;;;4.53;1.60;;;;;;;;;;6179337;23;20029;-78
2023/06/09 10:34:18;;;;;;;5.07;1.90;;;;;;;;;;6179902;23;20025;-82
2023/06/09 10:36:46;;;;;;;;;;;;;;;;;;6180036;23;20474;-82
2023/06/09 10:39:17;;;;;;;3.75;1.45;;;;;;;;;;6179454;23;19971;-82
2023/06/09 10:42:07;;;;;;;4.22;1.65;;;;;;;;;;6180911;23;20083;-82
2023/06/09 10:44:42;;;;;;;3.67;1.67;;;;;;;;;;6153513;23;20020;-80
2023/06/09 10:47:44;;;;;;;2.92;1.40;;;;;;;;;;6180893;23;20036;-82
2023/06/09 10:50:22;;;;;;;6.63;1.40;;;;;;;;;;6154709;23;20686;-81
2023/06/09 10:53:00;;;;;;;3.13;1.67;;;;;;;;;;6180005;23;20603;-82
2023/06/09 10:55:28;;;;;;;5.82;1.73;;;;;;;;;;6153804;23;20044;-82
2023/06/09 10:58:01;;;;;;;3.75;1.75;;;;;;;;;;6179623;23;20528;-81
2023/06/09 11:00:48;;;;;;;5.20;1.60;;;;;;;;;;6179615;23;20048;-81
2023/06/09 11:03:30;;;;;;;1.45;1.35;;;;;;;;;;6175013;23;20525;-82
2023/06/09 11:06:04;;;;;;;3.08;1.77;;;;;;;;;;6177733;23;20099;-81
2023/06/09 11:09:13;;;;;;;3.05;1.60;;;;;;;;;;6180123;23;20021;-81
2023/06/09 11:11:48;;;;;;;2.95;1.52;;;;;;;;;;6030640;23;20079;-80
2023/06/09 11:14:35;;;;;;;3.28;1.80;;;;;;;;;;6029378;23;20032;-81
2023/06/09 11:17:15;;;;;;;7.60;1.70;;;;;;;;;;6140084;23;20032;-81
2023/06/09 11:19:44;;;;;;;2.60;1.73;;;;;;;;;;6152612;23;20029;-82
2023/06/09 11:22:18;;;;;;;4.57;1.70;;;;;;;;;;6154329;23;20037;-82
2023/06/09 11:24:46;;;;;;;3.63;1.85;;;;;;;;;;6179522;23;20017;-82
2023/06/09 11:27:21;;;;;;;3.22;1.67;;;;;;;;;;6178754;23;20501;-80
2023/06/09 11:30:08;;;;;;;6.55;1.80;;;;;;;;;;6154831;23;20025;-80
2023/06/09 11:32:45;;;;;;;11.40;1.80;;;;;;;;;;6153858;23;20513;-82
2023/06/09 11:35:25;;;;;;;3.33;1.58;;;;;;;;;;6179217;23;20024;-84
2023/06/09 11:37:56;;;;;;;2.63;1.45;;;;;;;;;;6180224;23;20028;-81
2023/06/09 11:40:31;;;;;;;3.30;1.80;;;;;;;;;;6178621;23;20021;-81
2023/06/09 11:42:59;;;;;;;2.47;1.60;;;;;;;;;;6179626;23;20021;-82
2023/06/09 11:45:27;;;;;;;2.97;1.50;;;;;;;;;;6177790;23;20025;-83
2023/06/09 11:48:08;;;;;;;6.43;1.70;;;;;;;;;;6179274;23;20590;-82
2023/06/09 11:50:42;;;;;;;3.13;1.52;;;;;;;;;;6179535;23;20029;-83
2023/06/09 11:53:26;;;;;;;2.63;1.67;;;;;;;;;;6153828;23;20028;-82
2023/06/09 11:56:01;;;;;;;5.32;1.95;;;;;;;;;;6178581;23;20021;-82
2023/06/09 11:58:35;;;;;;;4.00;1.80;;;;;;;;;;6178731;23;20083;-82
2023/06/09 12:01:03;;;;;;;3.17;1.80;;;;;;;;;;6153032;23;20032;-82
2023/06/09 12:03:36;;;;;;;4.55;1.70;;;;;;;;;;6178868;23;20025;-82
2023/06/09 12:06:10;;;;;;;3.17;1.90;;;;;;;;;;6154452;23;20025;-82
2023/06/09 12:08:37;;;;;;;3.22;1.67;;;;;;;;;;6153243;23;20029;-82
2023/06/09 12:11:17;;;;;;;8.90;1.80;;;;;;;;;;6181907;23;20021;-83
2023/06/09 12:13:48;;;;;;;5.22;1.67;;;;;;;;;;6154733;23;20024;-82
2023/06/09 12:16:23;;;;;;;3.75;1.63;;;;;;;;;;6180833;23;20024;-81
2023/06/09 12:18:51;;;;;;;3.55;1.73;;;;;;;;;;6155828;23;20028;-83
2023/06/09 12:21:25;;;;;;;2.75;1.60;;;;;;;;;;6179467;23;20032;-83
2023/06/09 16:44:18;;;;;;;3.83;2.17;;;;;;;;;;5885167;22;8387740;-45
2023/06/09 16:46:52;;;;;;;4.07;2.25;;;;;;;;;;6169533;23;20489;-47
2023/06/09 16:49:20;;;;;;;3.63;2.40;;;;;;;;;;6169066;23;20052;-47
2023/06/09 16:51:54;;;;;;;3.88;2.20;;;;;;;;;;6166803;23;20049;-60
2023/06/09 16:54:21;;;;;;;4.97;2.60;;;;;;;;;;6166526;23;20063;-49
2023/06/09 16:56:48;;;;;;;2.95;2.35;;;;;;;;;;6168087;23;20025;-46
2023/06/09 16:59:22;;;;;;;3.92;2.75;;;;;;;;;;6171202;23;20021;-50
2023/06/09 17:01:49;;;;;;;5.72;2.80;;;;;;;;;;6169317;23;20104;-48
2023/06/09 17:04:23;;;;;;;5.60;2.50;;;;;;;;;;6166673;23;20071;-47
2023/06/09 17:06:50;;;;;;;3.63;2.53;;;;;;;;;;6167273;23;20099;-47
2023/06/09 17:09:18;;;;;;;9.25;2.60;;;;;;;;;;6170992;23;20357;-47
2023/06/09 17:11:51;;;;;;;4.38;2.38;;;;;;;;;;6148304;23;20024;-47
2023/06/09 17:14:18;;;;;;;4.68;2.92;;;;;;;;;;6157928;23;20418;-53
2023/06/09 17:16:46;;;;;;;7.82;2.60;;;;;;;;;;6142682;23;20145;-58
2023/06/09 17:19:21;;;;;;;3.85;2.40;;;;;;;;;;6143710;23;20033;-55
2023/06/09 17:21:48;;;;;;;6.32;2.30;;;;;;;;;;6142889;23;20032;-56
2023/06/09 17:24:22;;;;;;;4.13;2.20;;;;;;;;;;6140445;23;20025;-57
2023/06/09 17:26:50;;;;;;;3.90;2.15;;;;;;;;;;6144092;23;20028;-58
2023/06/09 17:29:24;;;;;;;6.72;2.40;;;;;;;;;;6143898;23;20033;-55
2023/06/09 17:31:53;;;;;;;6.60;2.30;;;;;;;;;;6144608;23;20022;-48
2023/06/09 17:34:20;;;;;;;2.92;2.17;;;;;;;;;;6141642;23;20081;-60
2023/06/09 17:36:54;;;;;;;5.38;2.35;;;;;;;;;;6143895;23;20025;-60
2023/06/09 17:39:21;;;;;;;4.47;2.40;;;;;;;;;;6141623;23;20030;-59
2023/06/09 17:41:49;;;;;;;7.25;2.85;;;;;;;;;;6143677;23;20025;-59
2023/06/09 17:44:35;;;;;;;3.22;2.38;;;;;;;;;;6138154;23;20131;-59
2023/06/09 17:47:09;;;;;;;3.88;2.15;;;;;;;;;;6139980;23;20029;-49
2023/06/09 17:49:43;;;;;;;2.78;2.08;;;;;;;;;;6144148;23;20100;-60
2023/06/09 17:52:11;;;;;;;3.25;2.05;;;;;;;;;;6142667;23;20036;-48
2023/06/09 17:54:39;;;;;;;4.00;1.80;;;;;;;;;;6142824;23;20416;-45
2023/06/09 17:57:12;;;;;;;4.45;1.95;;;;;;;;;;6140758;23;20029;-49
2023/06/09 17:59:40;;;;;;;2.08;1.80;;;;;;;;;;6142906;23;20551;-51
2023/06/09 18:02:13;;;;;;;3.10;2.22;;;;;;;;;;6142008;23;20096;-51
2023/06/09 18:04:40;;;;;;;5.55;2.22;;;;;;;;;;6142940;23;20080;-48
2023/06/09 18:07:10;;;;;;;7.30;2.40;;;;;;;;;;6142825;23;20025;-50
2023/06/09 18:09:43;;;;;;;5.90;2.20;;;;;;;;;;6118191;23;20084;-50
2023/06/09 18:12:11;;;;;;;5.00;2.20;;;;;;;;;;6143698;23;20033;-47
2023/06/09 18:14:45;;;;;;;7.03;2.60;;;;;;;;;;6141693;23;20092;-50
2023/06/09 18:17:12;;;;;;;;;;;;;;;;;;6145675;23;20029;-49
2023/06/09 18:19:39;;;;;;;3.03;2.33;;;;;;;;;;6140614;23;19924;-46
2023/06/09 18:22:13;;;;;;;5.90;2.35;;;;;;;;;;6141823;23;20470;-44
2023/06/09 18:24:40;;;;;;;2.72;2.20;;;;;;;;;;6145178;23;20029;-47
2023/06/09 18:27:15;;;;;;;3.90;2.45;;;;;;;;;;6144944;23;20021;-45
2023/06/09 18:29:42;;;;;;;6.53;2.20;;;;;;;;;;6143180;23;20038;-43
2023/06/09 18:32:09;;;;;;;6.70;2.35;;;;;;;;;;6140835;23;20081;-43
2023/06/09 18:34:48;;;;;;;4.00;2.42;;;;;;;;;;6145856;23;20453;-45
2023/06/09 18:37:16;;;;;;;3.78;2.10;;;;;;;;;;6143343;23;20053;-47
2023/06/09 18:39:49;;;;;;;2.72;2.33;;;;;;;;;;6144510;23;20088;-49
2023/06/09 18:42:16;;;;;;;4.97;2.42;;;;;;;;;;6143839;23;20677;-49
2023/06/09 18:44:44;;;;;;;3.80;1.95;;;;;;;;;;6145048;23;20029;-55
2023/06/09 18:47:25;;;;;;;3.20;2.10;;;;;;;;;;6137092;23;20029;-57
2023/06/09 18:49:52;;;;;;;3.85;2.35;;;;;;;;;;6143940;23;20025;-56
2023/06/09 18:52:26;;;;;;;3.58;2.20;;;;;;;;;;6145032;23;20087;-57
2023/06/09 18:54:54;;;;;;;2.45;2.00;;;;;;;;;;6145671;23;20029;-58
2023/06/09 18:57:21;;;;;;;4.10;2.30;;;;;;;;;;6143285;23;20029;-56
2023/06/09 18:59:56;;;;;;;3.63;2.50;;;;;;;;;;6144663;23;20025;-59
2023/06/09 19:02:24;;;;;;;2.75;2.28;;;;;;;;;;6142278;23;20393;-46
2023/06/09 19:04:57;;;;;;;2.90;2.17;;;;;;;;;;6145175;23;20021;-59
2023/06/09 19:07:24;;;;;;;2.58;2.17;;;;;;;;;;6144355;23;20437;-45
2023/06/09 19:09:53;;;;;;;2.67;2.10;;;;;;;;;;6144531;23;20030;-48
2023/06/09 19:12:28;;;;;;;3.28;2.20;;;;;;;;;;6144207;23;20033;-50
2023/06/09 19:14:56;;;;;;;4.68;2.53;;;;;;;;;;6143246;23;20026;-49
2023/06/09 19:17:30;;;;;;;3.00;1.90;;;;;;;;;;6139132;23;20057;-51
2023/06/09 19:19:58;;;;;;;3.95;2.15;;;;;;;;;;6143982;23;20064;-47
2023/06/09 19:22:25;;;;;;;3.00;2.30;;;;;;;;;;6141751;23;20268;-50
2023/06/09 19:24:59;;;;;;;8.00;2.30;;;;;;;;;;6141765;23;20076;-43
2023/06/09 19:27:26;;;;;;;3.40;2.30;;;;;;;;;;6140132;23;20034;-46
2023/06/09 19:30:00;;;;;;;11.70;2.30;;;;;;;;;;6144524;23;20120;-43
2023/06/09 19:32:28;;;;;;;3.72;2.22;;;;;;;;;;6145256;23;20112;-44
2023/06/09 19:34:55;;;;;;;3.33;2.00;;;;;;;;;;6144562;23;20028;-46